createdAt,value
2017-11-22T00:01:01.245Z,80.00
2017-11-22T00:03:29.531Z,80.30
2017-11-22T00:05:57.803Z,80.40
2017-11-22T00:08:26.808Z,80.20
2017-11-22T00:10:55.084Z,80.50
2017-11-22T00:13:23.369Z,81.00
2017-11-22T00:15:50.892Z,81.00
2017-11-22T00:18:18.389Z,80.90
2017-11-22T00:20:45.891Z,80.60
2017-11-22T00:23:13.421Z,80.60
2017-11-22T00:25:40.924Z,80.30
2017-11-22T00:28:08.445Z,80.00
2017-11-22T00:30:35.954Z,79.90
2017-11-22T00:33:04.217Z,79.90
2017-11-22T00:35:31.716Z,79.90
2017-11-22T00:37:59.240Z,79.90
2017-11-22T00:40:26.742Z,80.20
2017-11-22T00:42:54.237Z,80.70
2017-11-22T00:45:21.749Z,80.60
2017-11-22T00:47:49.256Z,80.80
2017-11-22T00:50:16.747Z,80.60
2017-11-22T00:52:45.015Z,80.80
2017-11-22T00:55:13.285Z,80.70
2017-11-22T00:57:40.781Z,80.70
2017-11-22T01:00:08.276Z,80.90
2017-11-22T01:02:35.794Z,81.00
2017-11-22T01:05:03.309Z,81.10
2017-11-22T01:07:30.828Z,81.20
2017-11-22T01:09:58.321Z,81.10
2017-11-22T01:12:25.812Z,81.20
2017-11-22T01:14:54.072Z,80.90
2017-11-22T01:17:21.582Z,80.80
2017-11-22T01:19:49.101Z,81.50
2017-11-22T01:22:17.384Z,81.10
2017-11-22T01:24:45.642Z,81.30
2017-11-22T01:27:13.915Z,81.60
2017-11-22T01:29:42.200Z,81.70
2017-11-22T01:32:10.560Z,81.70
2017-11-22T01:34:38.057Z,81.70
2017-11-22T01:37:05.568Z,81.80
2017-11-22T01:39:33.087Z,81.80
2017-11-22T01:42:00.609Z,81.90
2017-11-22T01:44:28.881Z,81.90
2017-11-22T01:46:56.379Z,81.90
2017-11-22T01:49:23.913Z,81.70
2017-11-22T01:51:52.177Z,80.80
2017-11-22T01:54:19.713Z,80.80
2017-11-22T01:56:47.229Z,80.70
2017-11-22T01:59:14.733Z,80.20
2017-11-22T02:01:42.232Z,80.30
2017-11-22T02:04:10.503Z,79.20
2017-11-22T02:06:38.004Z,79.10
2017-11-22T02:09:05.504Z,79.00
2017-11-22T02:11:33.798Z,78.70
2017-11-22T02:14:01.304Z,78.70
2017-11-22T02:16:28.811Z,78.50
2017-11-22T02:18:57.080Z,78.80
2017-11-22T02:21:25.352Z,78.80
2017-11-22T02:23:53.629Z,78.00
2017-11-22T02:26:21.898Z,77.40
2017-11-22T02:28:49.404Z,77.40
2017-11-22T02:31:16.892Z,77.10
2017-11-22T02:33:44.403Z,76.70
2017-11-22T02:36:11.911Z,76.60
2017-11-22T02:38:39.407Z,76.40
2017-11-22T02:41:07.685Z,75.40
2017-11-22T02:43:35.937Z,75.30
2017-11-22T02:46:03.427Z,75.30
2017-11-22T02:48:30.941Z,75.60
2017-11-22T02:50:58.429Z,75.40
2017-11-22T02:53:26.685Z,75.70
2017-11-22T02:55:54.176Z,75.70
2017-11-22T02:58:22.448Z,75.80
2017-11-22T03:00:50.719Z,75.50
2017-11-22T03:03:18.983Z,75.40
2017-11-22T03:05:46.485Z,75.40
2017-11-22T03:08:14.033Z,75.50
2017-11-22T03:10:41.541Z,75.60
2017-11-22T03:13:09.054Z,75.30
2017-11-22T03:15:36.552Z,75.50
2017-11-22T03:18:04.041Z,75.10
2017-11-22T03:20:32.331Z,74.60
2017-11-22T03:22:59.836Z,74.60
2017-11-22T03:25:27.345Z,74.20
2017-11-22T03:27:55.619Z,74.30
2017-11-22T03:30:23.118Z,74.30
2017-11-22T03:32:50.633Z,74.40
2017-11-22T03:35:18.896Z,74.10
2017-11-22T03:37:47.152Z,73.90
2017-11-22T03:40:14.645Z,73.80
2017-11-22T03:42:42.960Z,73.20
2017-11-22T03:45:10.471Z,73.20
2017-11-22T03:47:38.756Z,73.20
2017-11-22T03:50:12.637Z,73.60
2017-11-22T03:52:43.077Z,73.60
2017-11-22T03:55:11.372Z,73.20
2017-11-22T03:57:48.940Z,73.30
2017-11-22T04:00:16.434Z,73.20
2017-11-22T04:02:49.705Z,73.30
2017-11-22T04:05:17.988Z,73.60
2017-11-22T04:07:46.245Z,73.70
2017-11-22T04:10:13.760Z,73.70
2017-11-22T04:12:41.271Z,73.60
2017-11-22T04:15:09.534Z,73.70
2017-11-22T04:17:37.049Z,73.70
2017-11-22T04:20:04.565Z,73.60
2017-11-22T04:22:32.834Z,73.80
2017-11-22T04:25:00.324Z,73.80
2017-11-22T04:27:27.866Z,74.10
2017-11-22T04:34:33.137Z,73.60
2017-11-22T04:37:01.413Z,73.60
2017-11-22T04:39:29.678Z,73.80
2017-11-22T04:41:57.946Z,73.60
2017-11-22T04:44:25.444Z,73.60
2017-11-22T04:46:52.952Z,73.20
2017-11-22T04:49:20.479Z,73.20
2017-11-22T04:51:47.983Z,73.40
2017-11-22T04:54:15.477Z,73.10
2017-11-22T04:56:43.106Z,72.90
2017-11-22T04:59:10.606Z,72.60
2017-11-22T05:01:38.441Z,72.70
2017-11-22T05:04:07.028Z,72.40
2017-11-22T05:06:35.400Z,72.60
2017-11-22T05:09:03.712Z,72.60
2017-11-22T05:11:31.212Z,72.60
2017-11-22T05:13:58.713Z,72.80
2017-11-22T05:16:26.261Z,72.80
2017-11-22T05:18:54.521Z,72.90
2017-11-22T05:21:22.012Z,72.80
2017-11-22T05:23:49.525Z,73.20
2017-11-22T05:26:17.028Z,73.00
2017-11-22T05:28:44.520Z,73.00
2017-11-22T05:31:12.028Z,73.00
2017-11-22T05:33:40.506Z,72.80
2017-11-22T05:36:08.770Z,72.90
2017-11-22T05:38:36.268Z,72.90
2017-11-22T05:41:03.779Z,73.30
2017-11-22T05:43:31.291Z,73.20
2017-11-22T05:45:58.792Z,72.90
2017-11-22T05:48:26.285Z,72.60
2017-11-22T05:50:53.834Z,72.90
2017-11-22T05:53:21.361Z,73.10
2017-11-22T05:55:48.848Z,73.10
2017-11-22T05:58:17.124Z,73.30
2017-11-22T06:00:54.141Z,73.40
2017-11-22T06:03:21.648Z,73.30
2017-11-22T06:05:49.164Z,73.30
2017-11-22T06:08:16.661Z,73.00
2017-11-22T06:10:44.365Z,73.60
2017-11-22T06:13:11.861Z,73.60
2017-11-22T06:15:39.362Z,73.80
2017-11-22T06:18:07.636Z,73.80
2017-11-22T06:20:35.908Z,73.90
2017-11-22T06:23:04.190Z,73.90
2017-11-22T06:25:32.464Z,73.60
2017-11-22T06:28:00.752Z,73.70
2017-11-22T06:30:31.155Z,73.70
2017-11-22T06:32:58.644Z,73.50
2017-11-22T06:35:26.158Z,74.10
2017-11-22T06:37:54.430Z,73.20
2017-11-22T06:40:21.931Z,73.20
2017-11-22T06:42:50.380Z,73.40
2017-11-22T06:45:17.877Z,73.60
2017-11-22T06:47:45.385Z,73.20
2017-11-22T06:50:12.892Z,72.90
2017-11-22T06:52:40.384Z,73.40
2017-11-22T06:55:07.878Z,73.00
2017-11-22T06:57:35.388Z,73.10
2017-11-22T07:00:02.885Z,72.30
2017-11-22T07:02:35.957Z,71.90
2017-11-22T07:05:03.461Z,73.10
2017-11-22T07:07:31.722Z,71.60
2017-11-22T07:10:00.213Z,71.50
2017-11-22T07:12:28.488Z,71.80
2017-11-22T07:14:56.773Z,73.10
2017-11-22T07:17:30.303Z,73.00
2017-11-22T07:19:57.800Z,71.10
2017-11-22T07:22:25.288Z,70.60
2017-11-22T07:24:53.561Z,70.80
2017-11-22T07:27:22.080Z,69.20
2017-11-22T07:29:49.738Z,70.20
2017-11-22T07:32:17.277Z,68.80
2017-11-22T07:34:44.768Z,68.80
2017-11-22T07:37:17.997Z,69.00
2017-11-22T07:39:46.268Z,68.60
2017-11-22T07:42:13.789Z,68.60
2017-11-22T07:44:41.301Z,69.00
2017-11-22T07:47:12.369Z,68.00
2017-11-22T07:49:39.867Z,68.00
2017-11-22T07:52:13.208Z,68.10
2017-11-22T07:54:40.864Z,67.80
2017-11-22T07:57:11.048Z,67.40
2017-11-22T07:59:38.565Z,67.30
2017-11-22T08:02:06.065Z,67.20
2017-11-22T08:04:33.583Z,66.90
2017-11-22T08:07:01.080Z,67.30
2017-11-22T08:09:28.587Z,67.30
2017-11-22T08:11:56.090Z,67.10
2017-11-22T08:14:23.800Z,67.10
2017-11-22T08:16:51.308Z,67.10
2017-11-22T08:19:18.801Z,67.50
2017-11-22T08:21:47.072Z,67.30
2017-11-22T08:24:14.569Z,67.10
2017-11-22T08:26:42.069Z,67.60
2017-11-22T08:29:09.560Z,67.20
2017-11-22T08:31:37.815Z,66.30
2017-11-22T08:34:05.316Z,66.10
2017-11-22T08:36:32.841Z,65.60
2017-11-22T08:39:00.348Z,65.90
2017-11-22T08:41:27.861Z,65.40
2017-11-22T08:43:56.529Z,65.60
2017-11-22T08:46:24.029Z,65.40
2017-11-22T08:48:51.540Z,65.60
2017-11-22T08:51:19.057Z,65.20
2017-11-22T08:53:46.556Z,65.30
2017-11-22T08:56:20.486Z,65.60
2017-11-22T08:58:48.297Z,65.30
2017-11-22T09:01:15.793Z,64.80
2017-11-22T09:03:45.292Z,65.20
2017-11-22T09:06:18.619Z,65.30
2017-11-22T09:08:46.901Z,65.20
2017-11-22T09:11:15.169Z,65.20
2017-11-22T09:13:43.448Z,64.80
2017-11-22T09:16:11.717Z,64.90
2017-11-22T09:18:43.179Z,65.20
2017-11-22T09:21:11.462Z,65.00
2017-11-22T09:23:39.045Z,65.00
2017-11-22T09:26:06.782Z,65.00
2017-11-22T09:28:35.065Z,64.50
2017-11-22T09:31:08.970Z,64.60
2017-11-22T09:33:37.247Z,64.50
2017-11-22T09:36:04.761Z,64.50
2017-11-22T09:38:32.271Z,64.20
2017-11-22T09:40:59.785Z,63.50
2017-11-22T09:43:27.316Z,62.00
2017-11-22T09:45:54.821Z,62.20
2017-11-22T09:48:23.100Z,60.50
2017-11-22T09:50:51.392Z,60.20
2017-11-22T09:53:18.897Z,60.20
2017-11-22T09:55:46.396Z,59.70
2017-11-22T09:58:14.686Z,59.40
2017-11-22T10:00:42.205Z,59.40
2017-11-22T10:03:09.712Z,59.20
2017-11-22T10:05:37.221Z,59.00
2017-11-22T10:08:04.737Z,58.00
2017-11-22T10:10:32.245Z,58.20
2017-11-22T10:12:59.773Z,57.80
2017-11-22T10:15:27.388Z,58.00
2017-11-22T10:18:01.421Z,57.60
2017-11-22T10:20:28.937Z,57.60
2017-11-22T10:22:56.455Z,57.40
2017-11-22T10:25:23.965Z,56.70
2017-11-22T10:27:58.014Z,56.50
2017-11-22T10:30:29.579Z,56.50
2017-11-22T10:32:57.087Z,56.80
2017-11-22T10:35:24.603Z,56.90
2017-11-22T10:37:52.115Z,56.70
2017-11-22T10:40:20.414Z,56.00
2017-11-22T10:42:47.952Z,56.00
2017-11-22T10:45:16.214Z,56.00
2017-11-22T10:47:43.713Z,56.00
2017-11-22T10:50:11.212Z,56.10
2017-11-22T10:52:38.733Z,56.60
2017-11-22T10:55:06.252Z,57.30
2017-11-22T10:57:34.532Z,55.60
2017-11-22T11:00:02.797Z,55.40
2017-11-22T11:02:31.080Z,54.90
2017-11-22T11:04:58.591Z,54.90
2017-11-22T11:07:26.096Z,54.30
2017-11-22T11:09:53.762Z,54.10
2017-11-22T11:12:22.041Z,54.10
2017-11-22T11:14:50.325Z,53.00
2017-11-22T11:17:18.597Z,52.20
2017-11-22T11:19:46.865Z,51.10
2017-11-22T11:22:15.153Z,51.00
2017-11-22T11:24:43.633Z,51.10
2017-11-22T11:27:11.896Z,50.80
2017-11-22T11:29:39.579Z,50.80
2017-11-22T11:32:07.851Z,50.60
2017-11-22T11:34:36.114Z,50.60
2017-11-22T11:37:04.404Z,50.10
2017-11-22T11:39:32.694Z,50.30
2017-11-22T11:42:00.227Z,50.30
2017-11-22T11:44:27.724Z,49.90
2017-11-22T11:46:55.232Z,49.40
2017-11-22T11:49:22.753Z,49.60
2017-11-22T11:51:50.281Z,49.00
2017-11-22T11:54:18.537Z,48.50
2017-11-22T11:56:46.813Z,48.40
2017-11-22T11:59:14.325Z,48.40
2017-11-22T12:01:41.851Z,48.80
2017-11-22T12:04:09.353Z,47.80
2017-11-22T12:06:36.876Z,47.30
2017-11-22T12:09:04.393Z,47.00
2017-11-22T12:11:31.892Z,47.40
2017-11-22T12:13:59.388Z,46.30
2017-11-22T12:16:26.912Z,45.10
2017-11-22T12:18:54.412Z,44.20
2017-11-22T12:21:27.288Z,43.60
2017-11-22T12:23:54.818Z,43.40
2017-11-22T12:26:22.317Z,43.50
2017-11-22T12:28:49.817Z,42.60
2017-11-22T12:31:17.328Z,43.30
2017-11-22T12:33:44.836Z,43.40
2017-11-22T12:36:12.340Z,41.70
2017-11-22T12:38:39.837Z,41.90
2017-11-22T12:41:08.329Z,40.30
2017-11-22T12:43:38.302Z,39.70
2017-11-22T12:46:05.832Z,39.70
2017-11-22T12:48:33.361Z,39.50
2017-11-22T12:51:00.876Z,39.20
2017-11-22T12:53:28.699Z,38.60
2017-11-22T12:55:56.201Z,38.10
2017-11-22T12:58:23.701Z,36.80
2017-11-22T13:00:51.969Z,34.50
2017-11-22T13:03:20.352Z,32.80
2017-11-22T13:05:48.621Z,31.70
2017-11-22T13:08:16.917Z,31.70
2017-11-22T13:10:46.057Z,30.70
2017-11-22T13:13:13.549Z,30.60
2017-11-22T13:15:41.837Z,29.90
2017-11-22T13:18:10.106Z,29.70
2017-11-22T13:20:38.597Z,29.80
2017-11-22T13:23:06.871Z,29.40
2017-11-22T13:25:35.138Z,28.50
2017-11-22T13:28:03.401Z,28.80
2017-11-22T13:30:31.089Z,28.80
2017-11-22T13:32:59.357Z,28.80
2017-11-22T13:35:27.625Z,28.30
2017-11-22T13:37:55.122Z,28.30
2017-11-22T13:40:22.621Z,28.80
2017-11-22T13:42:50.113Z,28.40
2017-11-22T13:45:18.399Z,28.90
2017-11-22T13:47:45.904Z,28.90
2017-11-22T13:50:13.435Z,28.50
2017-11-22T13:52:40.955Z,29.50
2017-11-22T13:55:09.221Z,29.10
2017-11-22T13:57:36.717Z,29.00
2017-11-22T14:00:04.217Z,29.10
2017-11-22T14:02:31.292Z,30.00
2017-11-22T14:04:58.343Z,29.90
2017-11-22T14:07:25.404Z,30.50
2017-11-22T14:09:53.237Z,33.60
2017-11-22T14:12:20.288Z,33.50
2017-11-22T14:14:47.373Z,35.30
2017-11-22T14:17:15.308Z,37.80
2017-11-22T14:19:42.375Z,37.80
2017-11-22T14:22:10.219Z,40.40
2017-11-22T14:24:37.720Z,40.30
2017-11-22T14:27:05.228Z,41.30
2017-11-22T14:29:32.746Z,42.10
2017-11-22T14:32:00.244Z,42.50
2017-11-22T14:34:27.762Z,42.60
2017-11-22T14:36:55.268Z,43.00
2017-11-22T14:39:22.771Z,43.00
2017-11-22T14:41:49.851Z,43.50
2017-11-22T14:44:17.368Z,43.70
2017-11-22T14:46:45.192Z,45.00
2017-11-22T14:49:12.688Z,44.30
2017-11-22T14:51:40.969Z,45.20
2017-11-22T14:54:08.480Z,45.20
2017-11-22T14:56:35.984Z,45.60
2017-11-22T14:59:04.464Z,46.60
2017-11-22T15:01:32.284Z,47.00
2017-11-22T15:03:59.345Z,47.00
2017-11-22T15:06:26.391Z,47.10
2017-11-22T15:08:53.452Z,47.50
2017-11-22T15:11:20.523Z,47.60
2017-11-22T15:13:48.793Z,48.00
2017-11-22T15:16:17.060Z,48.20
2017-11-22T15:18:45.335Z,48.50
2017-11-22T15:21:13.601Z,49.60
2017-11-22T15:23:41.301Z,48.80
2017-11-22T15:26:08.807Z,49.20
2017-11-22T15:28:36.326Z,49.50
2017-11-22T15:31:03.840Z,49.60
2017-11-22T15:33:31.353Z,49.90
2017-11-22T15:35:58.900Z,50.50
2017-11-22T15:38:26.429Z,50.50
2017-11-22T15:40:54.696Z,51.00
2017-11-22T15:43:22.511Z,51.30
2017-11-22T15:45:50.025Z,51.30
2017-11-22T15:48:17.872Z,52.20
2017-11-22T15:50:45.570Z,52.20
2017-11-22T15:53:13.859Z,53.20
2017-11-22T15:55:41.381Z,53.20
2017-11-22T15:58:08.912Z,53.40
2017-11-22T16:00:36.420Z,53.50
2017-11-22T16:03:04.706Z,53.80
2017-11-22T16:05:32.251Z,53.70
2017-11-22T16:08:00.528Z,54.10
2017-11-22T16:10:28.805Z,54.30
2017-11-22T16:12:57.189Z,54.20
2017-11-22T16:15:24.713Z,54.40
2017-11-22T16:17:53.740Z,54.70
2017-11-22T16:20:22.045Z,55.30
2017-11-22T16:22:49.552Z,54.70
2017-11-22T16:25:17.064Z,54.80
2017-11-22T16:27:44.592Z,55.30
2017-11-22T16:30:12.868Z,54.90
2017-11-22T16:32:41.140Z,54.90
2017-11-22T16:35:09.412Z,54.90
2017-11-22T16:37:37.685Z,55.00
2017-11-22T16:40:06.188Z,55.10
2017-11-22T16:42:33.713Z,54.90
2017-11-22T16:45:01.218Z,55.00
2017-11-22T16:47:28.724Z,55.00
2017-11-22T16:49:56.245Z,55.20
2017-11-22T16:52:23.745Z,55.40
2017-11-22T16:54:51.258Z,55.50
2017-11-22T16:57:18.768Z,55.60
2017-11-22T16:59:47.045Z,55.70
2017-11-22T17:02:14.552Z,55.60
2017-11-22T17:04:42.060Z,55.70
2017-11-22T17:07:09.585Z,56.40
2017-11-22T17:09:37.101Z,55.90
2017-11-22T17:12:05.378Z,56.20
2017-11-22T17:14:32.891Z,56.20
2017-11-22T17:17:00.525Z,56.40
2017-11-22T17:19:28.037Z,56.60
2017-11-22T17:21:55.553Z,56.70
2017-11-22T17:24:23.069Z,56.70
2017-11-22T17:26:51.333Z,56.80
2017-11-22T17:29:19.598Z,56.90
2017-11-22T17:31:47.117Z,56.90
2017-11-22T17:34:14.627Z,57.00
2017-11-22T17:36:42.129Z,57.20
2017-11-22T17:39:09.632Z,57.10
2017-11-22T17:41:37.249Z,57.20
2017-11-22T17:44:04.777Z,57.30
2017-11-22T17:46:33.058Z,57.60
2017-11-22T17:49:00.569Z,57.60
2017-11-22T17:51:28.095Z,57.60
2017-11-22T17:53:55.609Z,57.60
2017-11-22T17:56:23.125Z,57.70
2017-11-22T17:58:50.628Z,57.30
2017-11-22T18:01:18.925Z,57.70
2017-11-22T18:03:47.204Z,57.60
2017-11-22T18:06:14.713Z,57.60
2017-11-22T18:08:42.216Z,57.60
2017-11-22T18:11:10.497Z,57.50
2017-11-22T18:13:38.781Z,57.60
2017-11-22T18:16:06.279Z,57.60
2017-11-22T18:18:33.782Z,57.60
2017-11-22T18:21:02.064Z,57.30
2017-11-22T18:23:30.349Z,57.10
2017-11-22T18:25:57.849Z,57.10
2017-11-22T18:28:25.369Z,57.60
2017-11-22T18:30:52.864Z,57.70
2017-11-22T18:33:20.374Z,57.90
2017-11-22T18:35:48.656Z,58.10
2017-11-22T18:38:16.303Z,58.20
2017-11-22T18:40:44.568Z,58.40
2017-11-22T18:43:12.833Z,58.30
2017-11-22T18:45:41.113Z,58.30
2017-11-22T18:48:08.617Z,58.30
2017-11-22T18:50:36.132Z,58.30
2017-11-22T18:53:03.648Z,58.30
2017-11-22T18:55:31.157Z,58.30
2017-11-22T18:57:58.672Z,58.30
2017-11-22T19:00:26.180Z,58.40
2017-11-22T19:02:54.444Z,59.00
2017-11-22T19:05:21.947Z,59.00
2017-11-22T19:07:49.440Z,59.10
2017-11-22T19:10:16.940Z,59.20
2017-11-22T19:12:45.217Z,59.40
2017-11-22T19:15:12.749Z,59.40
2017-11-22T19:17:41.759Z,59.60
2017-11-22T19:20:10.024Z,59.60
2017-11-22T19:22:37.530Z,59.50
2017-11-22T19:25:05.024Z,60.40
2017-11-22T19:27:32.524Z,60.60
2017-11-22T19:30:00.794Z,60.80
2017-11-22T19:32:29.069Z,60.70
2017-11-22T19:34:57.333Z,61.00
2017-11-22T19:37:24.934Z,60.90
2017-11-22T19:39:52.425Z,61.00
2017-11-22T19:42:19.933Z,61.10
2017-11-22T19:44:47.440Z,61.40
2017-11-22T19:47:14.935Z,61.30
2017-11-22T19:49:43.208Z,61.80
2017-11-22T19:52:11.465Z,61.80
2017-11-22T19:54:38.961Z,61.80
2017-11-22T19:57:06.472Z,61.90
2017-11-22T19:59:33.964Z,61.80
2017-11-22T20:02:02.444Z,63.00
2017-11-22T20:04:30.722Z,62.80
2017-11-22T20:07:11.431Z,62.60
2017-11-22T20:09:38.952Z,62.60
2017-11-22T20:12:07.215Z,62.80
2017-11-22T20:14:34.707Z,62.80
2017-11-22T20:17:02.224Z,63.10
2017-11-22T20:19:29.716Z,63.20
2017-11-22T20:21:57.223Z,63.40
2017-11-22T20:24:24.745Z,63.70
2017-11-22T20:26:52.265Z,64.50
2017-11-22T20:29:20.543Z,63.50
2017-11-22T20:31:48.832Z,63.70
2017-11-22T20:34:17.101Z,64.50
2017-11-22T20:36:45.389Z,64.60
2017-11-22T20:39:13.644Z,65.40
2017-11-22T20:41:41.160Z,65.30
2017-11-22T20:44:08.661Z,65.50
2017-11-22T20:46:36.188Z,65.50
2017-11-22T20:49:03.696Z,65.80
2017-11-22T20:51:31.961Z,65.90
2017-11-22T20:54:00.222Z,66.20
2017-11-22T20:56:27.718Z,66.00
2017-11-22T20:58:55.217Z,66.50
2017-11-22T21:01:22.712Z,66.60
2017-11-22T21:03:50.972Z,66.70
2017-11-22T21:06:18.469Z,66.70
2017-11-22T21:08:45.977Z,66.80
2017-11-22T21:11:13.536Z,67.20
2017-11-22T21:13:41.065Z,67.00
2017-11-22T21:16:08.580Z,66.70
2017-11-22T21:18:36.871Z,67.20
2017-11-22T21:21:05.158Z,65.90
2017-11-22T21:23:32.661Z,65.80
2017-11-22T21:26:00.364Z,65.00
2017-11-22T21:28:28.667Z,65.00
2017-11-22T21:30:56.205Z,64.70
2017-11-22T21:33:24.470Z,64.80
2017-11-22T21:35:52.729Z,65.20
2017-11-22T21:38:20.229Z,65.10
2017-11-22T21:40:47.719Z,65.40
2017-11-22T21:43:15.225Z,65.80
2017-11-22T21:45:43.485Z,66.00
2017-11-22T21:48:11.165Z,66.00
2017-11-22T21:50:39.422Z,65.60
2017-11-22T21:53:06.912Z,65.50
2017-11-22T21:55:34.401Z,65.50
2017-11-22T21:58:01.910Z,65.50
2017-11-22T22:00:30.184Z,66.40
2017-11-22T22:02:58.448Z,67.50
2017-11-22T22:05:25.940Z,67.50
2017-11-22T22:07:53.437Z,67.50
2017-11-22T22:10:20.932Z,66.80
2017-11-22T22:12:49.188Z,66.00
2017-11-22T22:15:16.672Z,66.00
2017-11-22T22:17:44.933Z,68.60
2017-11-22T22:20:13.200Z,67.80
2017-11-22T22:22:40.696Z,68.30
2017-11-22T22:25:08.194Z,68.80
2017-11-22T22:27:35.692Z,69.00
2017-11-22T22:30:03.359Z,69.20
2017-11-22T22:32:31.686Z,69.00
2017-11-22T22:34:59.187Z,68.90
2017-11-22T22:37:26.680Z,68.40
2017-11-22T22:39:54.177Z,69.00
2017-11-22T22:42:21.883Z,67.80
2017-11-22T22:44:50.148Z,67.40
2017-11-22T22:47:18.412Z,67.20
2017-11-22T22:49:45.907Z,67.10
2017-11-22T22:52:13.426Z,66.80
2017-11-22T22:54:40.920Z,66.70
2017-11-22T22:57:08.420Z,67.20
2017-11-22T22:59:35.937Z,67.80
2017-11-22T23:02:03.446Z,68.50
2017-11-22T23:04:30.940Z,68.70
2017-11-22T23:06:59.426Z,67.50
2017-11-22T23:09:26.944Z,67.40
2017-11-22T23:11:54.432Z,67.30
2017-11-22T23:14:22.692Z,67.10
2017-11-22T23:16:50.372Z,67.10
2017-11-22T23:19:18.633Z,71.00
2017-11-22T23:21:46.134Z,71.00
2017-11-22T23:24:13.666Z,70.60
2017-11-22T23:26:41.924Z,71.80
2017-11-22T23:29:09.425Z,71.80
2017-11-22T23:31:36.921Z,71.70
2017-11-22T23:34:04.417Z,70.60
2017-11-22T23:36:32.692Z,68.90
2017-11-22T23:39:00.979Z,68.50
2017-11-22T23:41:29.249Z,68.30
2017-11-22T23:43:57.517Z,68.50
2017-11-22T23:46:25.781Z,70.70
2017-11-22T23:48:53.284Z,70.70
2017-11-22T23:51:20.806Z,71.70
2017-11-22T23:53:49.087Z,73.40
2017-11-22T23:56:17.460Z,72.90
2017-11-22T23:58:44.969Z,72.70
